Terminal Aerodrome Forecast
Issued by NWS Wilmington, OH

Home | Current Version | Previous Version | Text Only | Print | Product List | Glossary On
Versions: 1 2 3 4 5 6 7 8 9 10 11 12 13 14 15 16 17 18 19 20 21 22 23 24 25
000
FTUS41 KILN 220902 AAA
TAFCVG
TAF AMD
KCVG 220902Z 2209/2312 20004KT P6SM SCT040 OVC100
     FM221200 21007KT P6SM -SHRA VCTS BKN040CB
      TEMPO 2213/2214 4SM TSRA
     FM221500 22011G19KT P6SM SCT040
     FM222300 23010KT P6SM SCT040
     FM230600 23009KT 5SM -SHRA VCTS BKN050CB
     FM231100 26006KT P6SM VCSH BKN050=

USA.gov is the U.S. government's official web portal to all federal, state and local government web resources and services.